Terminal Aerodrome Forecast
Issued by NWS

Home | Current Version | Previous Version | Text Only | Print | Product List | Glossary On
Versions: 1 2 3 4 5 6 7 8 9 10 11 12 13 14 15 16 17 18 19 20 21 22 23 24 25 26 27
962
FTUS41 KBUF 092121 AAA
TAFIAG
TAF AMD
KIAG 092121Z 0921/1018 23012KT P6SM VCSH SCT025 OVC045
     FM100100 24012KT P6SM VCSH BKN025
     FM100900 26011KT 5SM -SHSN OVC012
     FM101100 28013KT 2SM -SN OVC012=

USA.gov is the U.S. government's official web portal to all federal, state and local government web resources and services.